Aurora, Kentucky
Current Conditions -  °F | °C
As of 3:35 AM on Tuesday 21 Oct 2014 (Local Time) from KCEY Reporting Station
Clear Clear  
Wind Chill: 50°   Ceiling: Unl
Heat Index: 50°   Visibility: 10mi
Dew Point: 50°   Wind: 3mph
Humidity: 100%   Direction: 280°W
Pressure: 30.02"   Gusts: NA
Location:  36.7761°N, 88.2528°W
Report Text: KCEY 210835Z AUTO 28003KT 10SM CLR 10/10 A3002 RMK AO1
Loading
Personal Weather Stations






























Interactive Weather Map
Tropical Storm Tracking
New forecast layout! Learn more

10-Day Weather Forecast

Advertisements
Track Severe Weather on mobile